Time;durP1;ratioP1;P1;durP2;ratioP2;P2;SDS_P1;SDS_P2;PMS_P1;PMS_P2;Temp;Humidity;BMP_temperature;BMP_pressure;BME280_temperature;BME280_humidity;BME280_pressure;Samples;Min_cycle;Max_cycle;Signal;HPM_P1;HPM_P2
2021/01/11 00:00:23;;;;;;;80.83;27.20;;;-4.60;99.90;;;;;;5067375;28;20031;-78
2021/01/11 00:02:52;;;;;;;71.33;25.97;;;-4.70;99.90;;;;;;5067998;28;20036;-79
2021/01/11 00:05:18;;;;;;;74.43;28.40;;;-4.60;99.90;;;;;;5068352;28;20035;-78
2021/01/11 00:07:45;;;;;;;72.27;26.13;;;-4.60;99.90;;;;;;5069374;28;20039;-78
2021/01/11 00:10:11;;;;;;;83.80;27.83;;;-4.70;99.90;;;;;;5068695;28;20071;-78
2021/01/11 00:12:38;;;;;;;80.40;28.90;;;-4.70;99.90;;;;;;5065284;28;20168;-77
2021/01/11 00:15:08;;;;;;;83.30;27.47;;;-4.70;99.90;;;;;;5066368;28;20345;-78
2021/01/11 00:17:34;;;;;;;69.28;26.05;;;-4.70;99.90;;;;;;5068696;28;20024;-79
2021/01/11 00:20:00;;;;;;;71.13;23.23;;;-4.70;99.90;;;;;;5068618;28;20041;-78
2021/01/11 00:22:27;;;;;;;71.37;24.90;;;-4.70;99.90;;;;;;5068331;28;20053;-78
2021/01/11 00:24:52;;;;;;;67.90;24.40;;;-4.80;99.90;;;;;;5066045;28;20035;-81
2021/01/11 00:27:18;;;;;;;81.57;26.67;;;-4.80;99.90;;;;;;5065456;28;20028;-78
2021/01/11 00:29:44;;;;;;;77.33;26.50;;;-4.90;99.90;;;;;;5068969;28;20569;-79
2021/01/11 00:32:09;;;;;;;83.13;27.93;;;-4.90;99.90;;;;;;5067679;28;20103;-77
2021/01/11 00:34:35;;;;;;;71.53;23.97;;;-4.90;99.90;;;;;;5066754;28;20048;-77
2021/01/11 00:37:01;;;;;;;82.83;27.30;;;-4.90;99.90;;;;;;5071933;28;20032;-77
2021/01/11 00:39:27;;;;;;;87.87;27.20;;;-5.00;99.90;;;;;;5068258;28;20028;-77
2021/01/11 00:41:59;;;;;;;69.87;23.60;;;-5.00;99.90;;;;;;5067525;28;20028;-77
2021/01/11 00:44:28;;;;;;;65.37;22.47;;;-5.00;99.90;;;;;;5067439;28;20111;-78
2021/01/11 00:47:02;;;;;;;77.07;24.75;;;-5.10;99.90;;;;;;5068423;28;20036;-77
2021/01/11 00:49:28;;;;;;;68.07;21.53;;;-5.00;99.90;;;;;;5066762;28;20051;-78
2021/01/11 00:51:54;;;;;;;68.00;25.37;;;-5.10;99.90;;;;;;5063698;28;20726;-79
2021/01/11 00:54:20;;;;;;;67.63;24.90;;;-5.10;99.90;;;;;;5068434;28;20075;-78
2021/01/11 00:56:46;;;;;;;70.73;25.50;;;-5.00;99.90;;;;;;5068213;28;20045;-78
2021/01/11 00:59:13;;;;;;;74.03;26.07;;;-5.00;99.90;;;;;;5069326;28;20392;-77
2021/01/11 01:01:56;;;;;;;68.37;24.60;;;-5.00;99.90;;;;;;5066490;28;20530;-78
2021/01/11 01:04:22;;;;;;;70.80;24.37;;;-4.90;99.90;;;;;;5065156;28;20016;-77
2021/01/11 01:06:48;;;;;;;75.47;27.23;;;-4.90;99.90;;;;;;5067623;28;20025;-77
2021/01/11 01:09:13;;;;;;;81.90;26.30;;;-4.90;99.90;;;;;;5069437;28;20028;-77
2021/01/11 01:11:41;;;;;;;71.27;23.83;;;-4.90;99.90;;;;;;5062416;28;20024;-77
2021/01/11 01:14:07;;;;;;;75.13;25.73;;;-5.00;99.90;;;;;;5067917;28;20540;-78
2021/01/11 01:16:33;;;;;;;66.50;23.90;;;-4.90;99.90;;;;;;5067419;28;20029;-76
2021/01/11 01:18:59;;;;;;;69.50;23.97;;;-5.00;99.90;;;;;;5067947;28;20043;-78
2021/01/11 01:21:25;;;;;;;72.07;25.50;;;-5.00;99.90;;;;;;5067607;28;20106;-77
2021/01/11 01:23:51;;;;;;;74.53;25.73;;;-5.00;99.90;;;;;;5070312;28;20036;-77
2021/01/11 01:26:16;;;;;;;76.10;25.97;;;-5.00;99.90;;;;;;5067201;28;20494;-77
2021/01/11 01:28:42;;;;;;;70.67;24.50;;;-5.00;99.90;;;;;;5069842;28;20035;-77
2021/01/11 01:31:08;;;;;;;61.33;22.63;;;-5.00;99.90;;;;;;5073345;28;20040;-77
2021/01/11 01:33:33;;;;;;;68.63;23.57;;;-5.00;99.90;;;;;;5067570;28;20482;-78
2021/01/11 01:35:59;;;;;;;61.27;22.90;;;-5.00;99.90;;;;;;5068145;28;20088;-78
2021/01/11 01:38:25;;;;;;;64.03;20.80;;;-5.00;99.90;;;;;;5049762;28;20603;-77
2021/01/11 01:40:50;;;;;;;68.17;21.87;;;-5.10;99.90;;;;;;5067808;28;20060;-78
2021/01/11 01:43:16;;;;;;;61.27;17.83;;;-5.20;99.90;;;;;;5072500;28;20029;-76
2021/01/11 01:45:42;;;;;;;64.00;23.30;;;-5.20;99.90;;;;;;5067150;28;20024;-76
2021/01/11 01:48:09;;;;;;;70.63;25.27;;;-5.30;99.90;;;;;;5067261;28;20035;-77
2021/01/11 01:50:37;;;;;;;66.33;24.03;;;-5.30;99.90;;;;;;5067431;28;20511;-77
2021/01/11 01:53:03;;;;;;;59.00;20.53;;;-5.30;99.90;;;;;;5065294;28;20052;-78
2021/01/11 01:55:29;;;;;;;68.27;23.03;;;-5.30;99.90;;;;;;5067431;28;20082;-77
2021/01/11 01:57:58;;;;;;;71.33;23.27;;;-5.20;99.90;;;;;;5071342;28;20024;-78
2021/01/11 02:00:24;;;;;;;68.05;21.50;;;-5.20;99.90;;;;;;5069946;28;20032;-77
2021/01/11 02:02:49;;;;;;;72.67;25.10;;;-5.30;99.90;;;;;;5071518;28;20036;-77
2021/01/11 02:05:15;;;;;;;68.63;22.07;;;-5.30;99.90;;;;;;5069610;28;20112;-78
2021/01/11 02:07:59;;;;;;;64.47;20.80;;;-5.30;99.90;;;;;;5071376;28;20031;-76
2021/01/11 02:10:37;;;;;;;53.27;20.63;;;-5.40;99.90;;;;;;5069254;28;20036;-78
2021/01/11 02:13:28;;;;;;;58.40;20.23;;;-5.40;99.90;;;;;;5071193;28;20025;-77
2021/01/11 02:16:16;;;;;;;51.90;18.40;;;-5.40;99.90;;;;;;5070135;28;20103;-76
2021/01/11 02:19:00;;;;;;;57.77;20.80;;;-5.50;99.90;;;;;;5071100;28;20067;-77
2021/01/11 02:22:02;;;;;;;59.70;20.63;;;-5.60;99.90;;;;;;5064341;28;20048;-78
2021/01/11 02:24:50;;;;;;;61.43;19.57;;;-5.60;99.90;;;;;;5071958;28;20115;-77
2021/01/11 02:27:16;;;;;;;66.03;20.77;;;-5.50;99.90;;;;;;5071168;28;20032;-76
2021/01/11 02:30:17;;;;;;;57.83;21.00;;;-5.40;99.90;;;;;;5067429;28;20024;-78
2021/01/11 02:33:04;;;;;;;63.00;20.80;;;-5.40;99.90;;;;;;4988362;28;20126;-76
2021/01/11 02:35:31;;;;;;;54.00;18.60;;;-5.40;99.90;;;;;;4987518;28;20093;-76
2021/01/11 02:37:59;;;;;;;60.60;19.67;;;-5.40;99.90;;;;;;4987577;28;20034;-77
2021/01/11 02:40:25;;;;;;;59.20;19.67;;;-5.40;99.90;;;;;;4968722;28;20258;-76
2021/01/11 02:42:50;;;;;;;64.50;21.53;;;-5.40;99.90;;;;;;4982417;28;20089;-77
2021/01/11 02:45:16;;;;;;;67.23;21.43;;;-5.40;99.90;;;;;;4987326;28;20531;-77
2021/01/11 02:47:58;;;;;;;66.50;22.43;;;-5.50;99.90;;;;;;4990539;28;20451;-77
2021/01/11 02:50:25;;;;;;;56.80;20.03;;;-5.40;99.90;;;;;;4985640;28;20057;-77
2021/01/11 02:53:03;;;;;;;62.70;21.97;;;-5.40;99.90;;;;;;4986137;28;20042;-77
2021/01/11 02:55:42;;;;;;;59.27;19.97;;;-5.40;99.90;;;;;;4986351;28;20093;-76
2021/01/11 02:58:29;;;;;;;60.70;20.00;;;-5.40;99.90;;;;;;4985910;28;20061;-78
2021/01/11 03:01:01;;;;;;;54.00;19.67;;;-5.40;99.90;;;;;;4984863;28;20083;-78
2021/01/11 03:03:30;;;;;;;61.73;19.77;;;-5.40;99.90;;;;;;4987513;28;20118;-77
2021/01/11 03:05:56;;;;;;;56.60;19.30;;;-5.40;99.90;;;;;;4986863;28;20442;-76
2021/01/11 03:08:24;;;;;;;64.80;21.50;;;-5.50;99.90;;;;;;5030899;28;20044;-77
2021/01/11 03:10:53;;;;;;;64.45;19.63;;;-5.40;99.90;;;;;;5067452;28;20115;-77
2021/01/11 03:13:20;;;;;;;55.20;19.58;;;-5.30;99.90;;;;;;5065629;28;20471;-76
2021/01/11 03:15:46;;;;;;;59.33;21.63;;;-5.30;99.90;;;;;;5068501;28;20137;-76
2021/01/11 03:18:12;;;;;;;61.87;20.53;;;-5.30;99.90;;;;;;5071168;28;20379;-79
2021/01/11 03:20:39;;;;;;;59.67;20.47;;;-5.30;99.90;;;;;;5072108;28;20020;-77
2021/01/11 03:23:04;;;;;;;60.83;21.00;;;-5.30;99.90;;;;;;5074554;28;20043;-76
2021/01/11 03:25:30;;;;;;;66.63;22.70;;;-5.30;99.90;;;;;;5071345;28;20067;-76
2021/01/11 03:27:56;;;;;;;66.73;22.77;;;-5.50;99.90;;;;;;5070118;28;20493;-79
2021/01/11 03:30:21;;;;;;;61.87;20.93;;;-5.50;99.90;;;;;;5072411;28;20028;-78
2021/01/11 03:32:51;;;;;;;67.80;23.13;;;-5.40;99.90;;;;;;5072422;28;20036;-78
2021/01/11 03:35:16;;;;;;;69.47;21.63;;;-5.40;99.90;;;;;;5077007;28;20031;-77
2021/01/11 03:37:42;;;;;;;55.07;19.43;;;-5.30;99.90;;;;;;5069102;28;20020;-77
2021/01/11 03:40:08;;;;;;;60.10;20.90;;;-5.20;99.90;;;;;;5069401;28;20140;-77
2021/01/11 03:42:38;;;;;;;70.57;21.50;;;-5.30;99.90;;;;;;5063172;28;20396;-78
2021/01/11 03:45:09;;;;;;;65.07;21.63;;;-5.40;99.90;;;;;;5067868;28;20048;-76
2021/01/11 03:47:36;;;;;;;65.87;22.17;;;-5.30;99.90;;;;;;5051104;28;20560;-77
2021/01/11 03:50:03;;;;;;;67.57;23.13;;;-5.30;99.90;;;;;;5070242;28;20420;-77
2021/01/11 03:52:32;;;;;;;70.03;22.53;;;-5.40;99.90;;;;;;5066853;28;20360;-75
2021/01/11 03:54:58;;;;;;;60.92;21.08;;;-5.30;99.90;;;;;;5072860;28;20032;-78
2021/01/11 03:57:23;;;;;;;66.83;19.90;;;-5.40;99.90;;;;;;5069422;28;20802;-77
2021/01/11 03:59:49;;;;;;;54.63;17.40;;;-5.40;99.90;;;;;;5067960;28;20077;-77
2021/01/11 04:02:14;;;;;;;55.57;18.17;;;-5.40;99.90;;;;;;5067939;28;20025;-78
2021/01/11 04:04:40;;;;;;;59.93;19.63;;;-5.50;99.90;;;;;;5068200;28;20126;-77
2021/01/11 04:07:05;;;;;;;67.20;21.70;;;-5.50;99.90;;;;;;5070757;28;20040;-76
2021/01/11 04:09:31;;;;;;;59.63;20.53;;;-5.50;99.90;;;;;;5068962;28;20032;-77
2021/01/11 04:11:57;;;;;;;63.17;20.87;;;-5.50;99.90;;;;;;5068525;28;20028;-77
2021/01/11 04:14:22;;;;;;;50.80;17.67;;;-5.40;99.90;;;;;;5068810;28;20044;-76
2021/01/11 04:16:52;;;;;;;69.57;22.50;;;-5.50;99.90;;;;;;5067410;28;20032;-76
2021/01/11 04:19:18;;;;;;;63.23;21.47;;;-5.40;99.90;;;;;;5067103;28;20021;-78
2021/01/11 04:21:43;;;;;;;68.00;22.93;;;-5.40;99.90;;;;;;5065528;28;20241;-78
2021/01/11 04:24:09;;;;;;;65.33;22.17;;;-5.30;99.90;;;;;;5066960;28;20128;-78
2021/01/11 04:26:35;;;;;;;61.97;22.30;;;-5.30;99.90;;;;;;5068293;28;20044;-76
2021/01/11 04:29:00;;;;;;;64.13;21.30;;;-5.30;99.90;;;;;;5065364;28;20028;-77
2021/01/11 04:31:26;;;;;;;70.03;22.83;;;-5.20;99.90;;;;;;5068064;28;20067;-76
2021/01/11 04:33:51;;;;;;;69.50;24.57;;;-5.30;99.90;;;;;;5068727;28;20040;-77
2021/01/11 04:36:17;;;;;;;66.07;23.20;;;-5.20;99.90;;;;;;5068902;28;20032;-79
2021/01/11 04:38:43;;;;;;;65.10;22.80;;;-5.10;99.90;;;;;;5067893;28;20029;-76
2021/01/11 04:41:08;;;;;;;73.93;23.83;;;-5.10;99.90;;;;;;5068296;28;20457;-77
2021/01/11 04:43:45;;;;;;;66.33;22.27;;;-5.00;99.90;;;;;;5068135;28;20446;-75
2021/01/11 04:46:13;;;;;;;74.40;24.13;;;-5.00;99.90;;;;;;5068311;28;20475;-78
2021/01/11 04:48:42;;;;;;;65.53;21.27;;;-5.00;99.90;;;;;;5068006;28;20116;-78
2021/01/11 04:51:09;;;;;;;64.20;21.10;;;-5.00;99.90;;;;;;5067278;28;20028;-77
2021/01/11 04:53:35;;;;;;;70.47;22.07;;;-5.00;99.90;;;;;;5067634;28;20032;-77
2021/01/11 04:56:03;;;;;;;66.83;20.77;;;-5.00;99.90;;;;;;5067000;28;20028;-77
2021/01/11 04:58:55;;;;;;;63.87;21.93;;;-5.10;99.90;;;;;;5067125;28;20100;-78
2021/01/11 05:01:25;;;;;;;64.30;23.13;;;-5.10;99.90;;;;;;5068260;28;20029;-78
2021/01/11 05:03:51;;;;;;;62.93;21.57;;;-5.10;99.90;;;;;;5068417;28;20495;-78
2021/01/11 05:06:18;;;;;;;62.93;20.80;;;-5.10;99.90;;;;;;5066966;28;20028;-78
2021/01/11 05:08:45;;;;;;;71.17;23.63;;;-5.10;99.90;;;;;;5067248;28;20063;-78
2021/01/11 05:11:11;;;;;;;59.67;20.83;;;-5.10;99.90;;;;;;5067339;28;20028;-78
2021/01/11 05:13:37;;;;;;;62.57;21.33;;;-5.10;99.90;;;;;;5067944;28;20051;-77
2021/01/11 05:16:11;;;;;;;66.57;22.23;;;-5.10;99.90;;;;;;5065946;28;20016;-77
2021/01/11 05:18:37;;;;;;;79.47;23.90;;;-5.20;99.90;;;;;;5068623;28;20051;-79
2021/01/11 05:21:02;;;;;;;67.97;22.27;;;-5.20;99.90;;;;;;5068939;28;20049;-78
2021/01/11 05:23:37;;;;;;;68.37;22.67;;;-5.20;99.90;;;;;;5070522;28;20033;-77
2021/01/11 05:26:15;;;;;;;61.83;20.73;;;-5.20;99.90;;;;;;5063401;28;20561;-77
2021/01/11 05:28:43;;;;;;;62.77;19.80;;;-5.20;99.90;;;;;;5081267;28;20033;-77
2021/01/11 05:31:09;;;;;;;67.67;21.87;;;-5.30;99.90;;;;;;5078409;28;20387;-76
2021/01/11 05:33:51;;;;;;;62.03;20.20;;;-5.40;99.90;;;;;;5071928;28;20037;-77
2021/01/11 05:36:18;;;;;;;67.27;21.70;;;-5.40;99.90;;;;;;5067188;28;20044;-77
2021/01/11 05:38:46;;;;;;;71.60;23.63;;;-5.50;99.90;;;;;;5071204;28;20028;-77
2021/01/11 05:41:17;;;;;;;64.40;21.47;;;-5.40;99.90;;;;;;5072818;28;20030;-78
2021/01/11 05:43:45;;;;;;;66.73;21.57;;;-5.40;99.90;;;;;;5069973;28;20029;-77
2021/01/11 05:46:28;;;;;;;66.23;22.90;;;-5.40;99.90;;;;;;5071275;28;20449;-76
2021/01/11 05:49:06;;;;;;;64.23;22.60;;;-5.40;99.90;;;;;;5068223;28;20027;-76
2021/01/11 05:51:34;;;;;;;69.80;23.38;;;-5.40;99.90;;;;;;5071802;28;20032;-78
2021/01/11 05:54:00;;;;;;;62.00;20.43;;;-5.40;99.90;;;;;;5071688;28;20032;-77
2021/01/11 05:56:26;;;;;;;62.23;20.53;;;-5.40;99.90;;;;;;5071761;28;20075;-77
2021/01/11 05:59:07;;;;;;;61.37;21.30;;;-5.40;99.90;;;;;;5074794;28;20135;-77
2021/01/11 06:01:34;;;;;;;76.10;23.77;;;-5.30;99.90;;;;;;5072581;28;20142;-78
2021/01/11 06:04:00;;;;;;;59.67;20.50;;;-5.30;99.90;;;;;;5070884;28;20399;-76
2021/01/11 06:06:26;;;;;;;68.53;23.80;;;-5.30;99.90;;;;;;5075446;28;20028;-78
2021/01/11 06:08:52;;;;;;;70.03;22.13;;;-5.40;99.90;;;;;;5072393;28;20028;-76
2021/01/11 06:11:24;;;;;;;64.20;22.43;;;-5.40;99.90;;;;;;5070556;28;20027;-76
2021/01/11 06:13:51;;;;;;;63.87;21.07;;;-5.40;99.90;;;;;;5070101;28;20040;-77
2021/01/11 06:16:18;;;;;;;72.57;22.97;;;-5.50;99.90;;;;;;5071178;28;20043;-75
2021/01/11 06:18:49;;;;;;;70.73;22.47;;;-5.40;99.90;;;;;;5069145;28;20082;-75
2021/01/11 06:21:15;;;;;;;58.90;21.40;;;-5.40;99.90;;;;;;5071820;28;20150;-74
2021/01/11 06:23:41;;;;;;;59.60;20.53;;;-5.40;99.90;;;;;;5071218;28;20081;-76
2021/01/11 06:26:25;;;;;;;69.30;21.13;;;-5.40;99.90;;;;;;5069985;28;20837;-75
2021/01/11 06:28:51;;;;;;;59.60;20.50;;;-5.40;99.90;;;;;;5066034;28;20108;-77
2021/01/11 06:31:17;;;;;;;60.47;20.13;;;-5.30;99.90;;;;;;5071094;28;20386;-76
2021/01/11 06:33:44;;;;;;;67.30;22.53;;;-5.50;99.90;;;;;;5066500;28;20048;-76
2021/01/11 06:36:30;;;;;;;57.40;18.97;;;-5.40;99.90;;;;;;5069551;28;20020;-76
2021/01/11 06:39:04;;;;;;;56.50;19.40;;;-5.30;99.90;;;;;;5070965;28;20099;-77
2021/01/11 06:41:31;;;;;;;55.47;19.90;;;-5.30;99.90;;;;;;5070555;28;20035;-79
2021/01/11 06:44:07;;;;;;;57.70;20.07;;;-5.30;99.90;;;;;;5071853;28;20048;-77
2021/01/11 06:46:32;;;;;;;60.33;20.47;;;-5.20;99.90;;;;;;5070055;28;20511;-77
2021/01/11 06:49:00;;;;;;;61.73;20.20;;;-5.20;99.90;;;;;;5071738;28;20038;-78
2021/01/11 06:51:42;;;;;;;53.57;19.77;;;-5.30;99.90;;;;;;5067088;28;20050;-80
2021/01/11 06:54:12;;;;;;;60.40;22.03;;;-5.30;99.90;;;;;;5070434;28;20052;-79
2021/01/11 06:56:39;;;;;;;65.57;20.57;;;-5.20;99.90;;;;;;5070997;28;20527;-78
2021/01/11 06:59:18;;;;;;;65.80;22.43;;;-5.20;99.90;;;;;;5072732;28;20036;-86
2021/01/11 07:01:45;;;;;;;63.83;21.10;;;-5.20;99.90;;;;;;5045219;28;20029;-87
2021/01/11 07:04:31;;;;;;;59.83;20.23;;;-5.10;99.90;;;;;;5075263;28;20032;-80
2021/01/11 07:07:00;;;;;;;60.00;20.40;;;-5.20;99.90;;;;;;5068981;28;20829;-83
2021/01/11 07:09:26;;;;;;;61.25;21.00;;;-5.10;99.90;;;;;;5077336;28;20032;-78
2021/01/11 07:11:53;;;;;;;51.23;17.13;;;-5.10;99.90;;;;;;5075477;28;20027;-80
2021/01/11 07:14:22;;;;;;;55.57;19.30;;;-5.20;99.90;;;;;;5052996;28;20461;-78
2021/01/11 07:16:53;;;;;;;55.87;18.73;;;-5.30;99.90;;;;;;5071142;28;20063;-78
2021/01/11 07:19:22;;;;;;;51.13;17.10;;;-5.30;99.90;;;;;;5071735;28;20025;-77
2021/01/11 07:21:49;;;;;;;40.15;14.90;;;-5.40;99.90;;;;;;5054084;28;20088;-80
2021/01/11 07:24:16;;;;;;;54.33;20.53;;;-5.50;99.90;;;;;;5072414;28;20036;-79
2021/01/11 07:26:42;;;;;;;58.23;20.97;;;-5.50;99.90;;;;;;5082533;28;20051;-78
2021/01/11 07:29:17;;;;;;;55.67;19.77;;;-5.50;99.90;;;;;;5094048;28;20024;-80
2021/01/11 07:31:44;;;;;;;52.77;17.53;;;-5.50;99.90;;;;;;5080777;28;20107;-78
2021/01/11 07:34:18;;;;;;;56.43;18.63;;;-5.60;99.90;;;;;;5079826;28;20041;-79
2021/01/11 07:36:43;;;;;;;62.00;20.37;;;-5.60;99.90;;;;;;5070737;28;20024;-79
2021/01/11 07:39:12;;;;;;;67.07;18.80;;;-5.60;99.90;;;;;;5069371;28;20051;-78
2021/01/11 07:41:39;;;;;;;49.58;18.23;;;-5.70;99.90;;;;;;5070675;28;20074;-77
2021/01/11 07:44:21;;;;;;;55.70;18.80;;;-5.70;99.90;;;;;;5070973;28;20388;-79
2021/01/11 07:46:59;;;;;;;55.47;18.23;;;-5.70;99.90;;;;;;5068362;28;20044;-79
2021/01/11 07:49:30;;;;;;;58.67;20.27;;;-5.80;99.90;;;;;;5071336;28;20039;-78
2021/01/11 07:52:14;;;;;;;58.47;19.17;;;-5.80;99.90;;;;;;5069454;28;20025;-79
2021/01/11 07:54:40;;;;;;;60.37;18.20;;;-5.80;99.90;;;;;;5052376;28;20037;-81
2021/01/11 07:57:13;;;;;;;56.70;18.63;;;-5.80;99.90;;;;;;5072205;28;20024;-80
2021/01/11 07:59:39;;;;;;;59.67;20.07;;;-5.80;99.90;;;;;;5070393;28;20052;-79
2021/01/11 08:02:10;;;;;;;58.60;19.87;;;-5.80;99.90;;;;;;5065761;28;20047;-80
2021/01/11 08:04:37;;;;;;;57.60;18.13;;;-5.70;99.90;;;;;;5068610;28;20476;-79
2021/01/11 08:07:06;;;;;;;45.03;15.13;;;-5.70;99.90;;;;;;5070131;28;20484;-80
2021/01/11 08:09:33;;;;;;;55.37;17.87;;;-5.60;99.90;;;;;;5065964;28;20031;-79
2021/01/11 08:12:17;;;;;;;58.17;17.77;;;-5.60;99.90;;;;;;5067173;28;20024;-79
2021/01/11 08:14:46;;;;;;;56.30;17.37;;;-5.50;99.90;;;;;;5070441;28;20077;-79
2021/01/11 08:17:14;;;;;;;53.43;18.57;;;-5.50;99.90;;;;;;5058041;28;20035;-80
2021/01/11 08:19:41;;;;;;;61.37;19.80;;;-5.50;99.90;;;;;;5067745;28;20066;-79
2021/01/11 08:22:09;;;;;;;59.33;19.60;;;-5.40;99.90;;;;;;5069261;28;20507;-78
2021/01/11 08:24:36;;;;;;;57.03;18.47;;;-5.40;99.90;;;;;;5070517;28;20032;-79
2021/01/11 08:27:11;;;;;;;63.40;20.97;;;-5.30;99.90;;;;;;5070488;28;20025;-81
2021/01/11 08:29:40;;;;;;;52.50;17.13;;;-5.30;99.90;;;;;;5064355;28;20033;-79
2021/01/11 08:32:14;;;;;;;56.08;19.17;;;-5.30;99.90;;;;;;5070377;28;20029;-80
2021/01/11 08:34:42;;;;;;;62.83;17.93;;;-5.40;99.90;;;;;;5046154;28;20047;-81
2021/01/11 08:37:29;;;;;;;55.75;20.40;;;-5.60;99.90;;;;;;5071168;28;20024;-80
2021/01/11 08:40:03;;;;;;;55.30;17.93;;;-5.50;99.90;;;;;;5070763;28;20020;-79
2021/01/11 08:42:29;;;;;;;54.33;19.27;;;-5.40;99.90;;;;;;5069379;28;20046;-78
2021/01/11 08:45:15;;;;;;;56.67;18.90;;;-5.40;99.90;;;;;;5070140;28;20052;-79
2021/01/11 08:47:41;;;;;;;52.77;19.30;;;-5.30;99.90;;;;;;5069314;28;20404;-77
2021/01/11 08:50:07;;;;;;;61.20;20.07;;;-5.30;99.90;;;;;;5069871;28;20028;-77
2021/01/11 08:52:34;;;;;;;57.80;18.93;;;-5.30;99.90;;;;;;5069486;28;20078;-81
2021/01/11 08:55:28;;;;;;;52.73;18.50;;;-5.40;99.90;;;;;;5069879;28;20035;-78
2021/01/11 08:57:58;;;;;;;58.30;19.70;;;-5.40;99.90;;;;;;4975236;28;20062;-79
2021/01/11 09:00:24;;;;;;;57.00;17.93;;;-5.30;99.90;;;;;;4988071;28;20023;-78
2021/01/11 09:02:49;;;;;;;50.00;17.37;;;-5.50;99.90;;;;;;4984779;28;20125;-79
2021/01/11 09:05:17;;;;;;;56.20;19.67;;;-5.40;99.90;;;;;;4983174;28;20049;-78
2021/01/11 09:07:44;;;;;;;56.97;18.27;;;-5.40;99.90;;;;;;4987925;28;20468;-80
2021/01/11 09:10:24;;;;;;;52.63;17.73;;;-5.30;99.90;;;;;;4988334;28;20023;-80
2021/01/11 09:12:50;;;;;;;57.93;19.73;;;-5.30;99.90;;;;;;4984060;28;20346;-79
2021/01/11 09:15:27;;;;;;;56.73;18.63;;;-5.20;99.90;;;;;;4988537;28;20080;-80
2021/01/11 09:18:04;;;;;;;55.70;19.10;;;-5.20;99.90;;;;;;4986046;28;20142;-81
2021/01/11 09:20:30;;;;;;;48.73;16.67;;;-5.10;99.90;;;;;;4990619;28;20026;-79
2021/01/11 09:22:57;;;;;;;50.53;16.63;;;-5.20;99.90;;;;;;4986955;28;20122;-80
2021/01/11 09:25:24;;;;;;;47.50;16.67;;;-5.10;99.90;;;;;;4988640;28;20034;-79
2021/01/11 09:27:49;;;;;;;56.13;19.33;;;-5.00;99.90;;;;;;4987001;28;20089;-80
2021/01/11 09:30:15;;;;;;;55.60;18.77;;;-5.10;99.90;;;;;;4988117;28;20133;-80
2021/01/11 09:32:43;;;;;;;44.10;14.10;;;-5.10;99.90;;;;;;4971904;28;20022;-79
2021/01/11 09:35:11;;;;;;;54.37;17.93;;;-5.20;99.90;;;;;;5052571;28;20394;-78
2021/01/11 09:37:36;;;;;;;52.30;18.03;;;-5.10;99.90;;;;;;5069683;28;20036;-79
2021/01/11 09:40:03;;;;;;;46.90;16.13;;;-5.10;99.90;;;;;;5077209;28;20021;-79
2021/01/11 09:42:29;;;;;;;51.03;17.20;;;-5.00;99.90;;;;;;5087918;28;20132;-78
2021/01/11 09:44:54;;;;;;;49.53;17.63;;;-5.10;99.90;;;;;;5086350;28;20147;-78
2021/01/11 09:47:22;;;;;;;44.33;14.67;;;-5.20;99.90;;;;;;5080097;28;20033;-79
2021/01/11 09:49:47;;;;;;;42.50;15.20;;;-5.30;99.90;;;;;;5047316;28;20514;-78
2021/01/11 09:52:13;;;;;;;47.40;15.67;;;-5.20;99.90;;;;;;5070185;28;20036;-79
2021/01/11 09:54:38;;;;;;;46.77;16.87;;;-5.40;99.90;;;;;;5070282;28;20159;-82
2021/01/11 09:57:04;;;;;;;50.17;16.60;;;-5.50;99.90;;;;;;5069369;28;20025;-78
2021/01/11 09:59:30;;;;;;;57.57;20.23;;;-5.40;99.90;;;;;;5068897;28;20029;-81
2021/01/11 10:01:56;;;;;;;46.07;15.23;;;-5.20;99.90;;;;;;5068383;28;20191;-77
2021/01/11 10:04:22;;;;;;;37.87;13.20;;;-5.20;99.90;;;;;;5069234;28;20108;-77
2021/01/11 10:06:53;;;;;;;46.00;17.37;;;-5.40;99.90;;;;;;5069867;28;20058;-80
2021/01/11 10:09:23;;;;;;;43.37;16.30;;;-5.20;99.90;;;;;;5071404;28;20021;-79
2021/01/11 10:11:51;;;;;;;41.73;15.17;;;-5.20;99.90;;;;;;5071138;28;20028;-79
2021/01/11 10:14:17;;;;;;;46.53;17.00;;;-5.40;99.90;;;;;;5069999;28;20067;-81
2021/01/11 10:16:44;;;;;;;48.67;16.23;;;-5.20;99.90;;;;;;5068616;28;20056;-78
2021/01/11 10:19:13;;;;;;;46.50;16.47;;;-5.20;99.90;;;;;;5072582;28;20056;-77
2021/01/11 10:21:39;;;;;;;41.97;17.30;;;-5.10;99.90;;;;;;5071888;28;20473;-79
2021/01/11 10:24:06;;;;;;;41.77;14.63;;;-5.10;99.90;;;;;;5072967;28;20033;-78
2021/01/11 10:26:33;;;;;;;47.37;17.43;;;-5.10;99.90;;;;;;5057807;28;20028;-78
2021/01/11 10:28:58;;;;;;;46.90;17.07;;;-5.20;99.90;;;;;;5072391;28;20119;-80
2021/01/11 10:31:25;;;;;;;43.43;17.43;;;-5.00;99.90;;;;;;5072456;28;20111;-81
2021/01/11 10:33:51;;;;;;;38.87;14.30;;;-5.00;99.90;;;;;;5071926;28;20036;-77
2021/01/11 10:36:17;;;;;;;43.23;15.90;;;-5.00;99.90;;;;;;5072401;28;20023;-78
2021/01/11 10:38:42;;;;;;;34.30;13.67;;;-4.90;99.90;;;;;;5071659;28;20437;-80
2021/01/11 10:41:14;;;;;;;39.73;14.87;;;-4.60;99.90;;;;;;5071949;28;20036;-80
2021/01/11 10:43:40;;;;;;;40.37;14.97;;;-4.40;99.90;;;;;;5067429;28;20086;-79
2021/01/11 10:46:05;;;;;;;34.10;13.67;;;-4.20;99.90;;;;;;5065442;28;20707;-79
2021/01/11 10:48:31;;;;;;;36.17;14.10;;;-4.00;99.90;;;;;;5071263;28;20025;-81
2021/01/11 10:50:56;;;;;;;36.03;14.40;;;-4.10;99.90;;;;;;5053311;28;20071;-77
2021/01/11 10:53:22;;;;;;;41.63;15.60;;;-4.10;99.90;;;;;;5067332;28;20123;-77
2021/01/11 10:55:48;;;;;;;41.70;15.27;;;-4.50;99.90;;;;;;5071503;28;20433;-77
2021/01/11 10:58:14;;;;;;;42.53;16.93;;;-4.20;99.90;;;;;;5054004;28;20082;-78
2021/01/11 11:00:39;;;;;;;39.13;15.67;;;-3.90;99.90;;;;;;5071617;28;20016;-78
2021/01/11 11:03:06;;;;;;;41.00;14.67;;;-3.60;99.90;;;;;;5071129;28;20036;-79
2021/01/11 11:05:32;;;;;;;37.73;15.20;;;-3.80;99.90;;;;;;5071542;28;20059;-79
2021/01/11 11:07:58;;;;;;;35.90;14.03;;;-3.50;99.90;;;;;;5071341;28;20048;-78
2021/01/11 11:10:24;;;;;;;36.10;13.80;;;-3.50;99.90;;;;;;5069581;28;20025;-78
2021/01/11 11:12:50;;;;;;;34.10;14.17;;;-3.50;99.90;;;;;;5052643;28;20144;-79
2021/01/11 11:15:16;;;;;;;35.20;14.37;;;-3.60;99.90;;;;;;5070198;28;20032;-78
2021/01/11 11:17:42;;;;;;;35.97;14.10;;;-3.50;99.90;;;;;;5071134;28;20107;-79
2021/01/11 11:20:09;;;;;;;31.43;11.53;;;-3.30;99.90;;;;;;5053845;28;20039;-78
2021/01/11 11:22:36;;;;;;;39.47;16.23;;;-3.70;99.90;;;;;;5072246;28;20044;-78
2021/01/11 11:25:06;;;;;;;35.37;13.53;;;-4.10;99.90;;;;;;5071575;28;20072;-77
2021/01/11 11:27:35;;;;;;;36.30;14.63;;;-4.20;99.90;;;;;;5069682;28;20028;-78
2021/01/11 11:30:02;;;;;;;37.13;13.50;;;-4.20;99.90;;;;;;5071216;28;20028;-78
2021/01/11 11:32:29;;;;;;;36.97;15.37;;;-4.30;99.90;;;;;;5072431;28;20129;-78
2021/01/11 11:34:55;;;;;;;38.93;14.00;;;-4.20;99.90;;;;;;5071145;28;20035;-81
2021/01/11 11:37:21;;;;;;;33.90;14.53;;;-4.00;99.90;;;;;;5071031;28;20361;-79
2021/01/11 11:39:47;;;;;;;36.10;15.10;;;-3.90;99.90;;;;;;5071254;28;20040;-78
2021/01/11 11:42:13;;;;;;;32.93;14.33;;;-3.80;99.90;;;;;;5071485;28;20059;-80
2021/01/11 11:44:39;;;;;;;37.97;13.43;;;-3.70;99.90;;;;;;5069480;28;20598;-79
2021/01/11 11:47:04;;;;;;;37.13;15.33;;;-3.60;99.90;;;;;;5071181;28;20127;-77
2021/01/11 11:49:30;;;;;;;37.63;15.27;;;-3.60;99.90;;;;;;5077306;28;20044;-78
2021/01/11 11:51:55;;;;;;;40.37;16.37;;;-3.60;99.90;;;;;;5080053;28;20035;-78
2021/01/11 11:54:21;;;;;;;36.10;13.83;;;-3.40;99.90;;;;;;5087899;28;20088;-78
2021/01/11 11:56:47;;;;;;;33.80;13.20;;;-3.40;99.90;;;;;;5070981;28;20049;-77
2021/01/11 11:59:13;;;;;;;35.13;13.53;;;-3.70;99.90;;;;;;5069846;28;20472;-78
2021/01/11 12:01:40;;;;;;;36.93;15.77;;;-3.60;99.90;;;;;;5068480;28;20182;-79
2021/01/11 12:04:07;;;;;;;37.70;15.83;;;-3.30;99.90;;;;;;5070185;28;20028;-78
2021/01/11 12:06:40;;;;;;;37.73;16.57;;;-3.40;99.90;;;;;;5069986;28;20063;-79
2021/01/11 12:09:07;;;;;;;36.97;13.30;;;-3.40;99.90;;;;;;5070463;28;20098;-77
2021/01/11 12:11:42;;;;;;;40.43;14.60;;;-3.90;99.90;;;;;;5070338;28;20127;-78
2021/01/11 12:14:08;;;;;;;34.07;12.53;;;-3.80;99.90;;;;;;5063946;28;20032;-77
2021/01/11 12:16:33;;;;;;;43.47;15.07;;;-3.90;99.90;;;;;;5069665;28;20086;-80
2021/01/11 12:19:00;;;;;;;37.23;14.77;;;-3.70;99.90;;;;;;5070116;28;20037;-79
2021/01/11 12:21:31;;;;;;;48.73;18.63;;;-3.50;99.90;;;;;;5068803;28;20063;-79
2021/01/11 12:23:57;;;;;;;40.10;14.77;;;-3.40;99.90;;;;;;5069761;28;20438;-78
2021/01/11 12:26:23;;;;;;;37.10;14.40;;;-3.30;99.90;;;;;;5062116;28;20029;-78
2021/01/11 12:28:50;;;;;;;30.93;13.43;;;-3.20;99.90;;;;;;5070072;28;20111;-78
2021/01/11 12:31:16;;;;;;;40.00;12.90;;;-3.50;99.90;;;;;;5069168;28;20100;-79
2021/01/11 12:33:41;;;;;;;40.57;14.93;;;-3.40;99.90;;;;;;5068571;28;20043;-77
2021/01/11 12:36:07;;;;;;;40.93;17.13;;;-3.00;99.90;;;;;;5073436;28;20028;-78